Time;durP1;ratioP1;P1;durP2;ratioP2;P2;SDS_P1;SDS_P2;PMS_P1;PMS_P2;Temp;Humidity;BMP_temperature;BMP_pressure;BME280_temperature;BME280_humidity;BME280_pressure;Samples;Min_cycle;Max_cycle;Signal;HPM_P1;HPM_P2
2023/10/29 00:00:37;;;;;;;17.08;10.38;;;;;;;;;;5048654;28;20052;-60
2023/10/29 00:03:06;;;;;;;14.65;9.90;;;;;;;;;;5041021;28;20037;-61
2023/10/29 00:05:32;;;;;;;12.02;9.38;;;;;;;;;;5044824;28;20369;-61
2023/10/29 00:07:58;;;;;;;15.55;10.85;;;;;;;;;;5052818;28;20084;-60
2023/10/29 00:10:24;;;;;;;18.17;11.35;;;;;;;;;;5048400;28;20040;-60
2023/10/29 00:12:51;;;;;;;18.60;11.60;;;;;;;;;;5051919;28;20080;-60
2023/10/29 00:15:17;;;;;;;17.67;11.70;;;;;;;;;;5034152;28;20378;-60
2023/10/29 00:17:43;;;;;;;20.50;12.05;;;;;;;;;;5051521;28;20041;-60
2023/10/29 00:20:09;;;;;;;17.77;11.70;;;;;;;;;;5045480;28;20037;-60
2023/10/29 00:22:35;;;;;;;20.48;11.35;;;;;;;;;;5053072;28;20067;-60
2023/10/29 00:25:01;;;;;;;19.85;11.45;;;;;;;;;;5034999;28;20183;-60
2023/10/29 00:27:28;;;;;;;20.13;12.15;;;;;;;;;;5051559;28;20377;-60
2023/10/29 00:29:54;;;;;;;19.63;11.82;;;;;;;;;;5052444;28;20132;-60
2023/10/29 00:32:20;;;;;;;19.85;12.10;;;;;;;;;;5051381;28;20037;-60
2023/10/29 00:34:47;;;;;;;17.25;11.05;;;;;;;;;;5052316;28;20037;-60
2023/10/29 00:37:13;;;;;;;13.98;10.50;;;;;;;;;;5053185;28;20033;-60
2023/10/29 00:39:40;;;;;;;16.25;10.18;;;;;;;;;;5052612;28;20370;-60
2023/10/29 00:42:07;;;;;;;19.65;10.80;;;;;;;;;;5052158;28;20052;-60
2023/10/29 00:44:33;;;;;;;13.30;8.93;;;;;;;;;;5053433;28;20116;-60
2023/10/29 00:47:00;;;;;;;12.57;8.88;;;;;;;;;;5051683;28;20080;-60
2023/10/29 00:49:27;;;;;;;11.45;8.52;;;;;;;;;;5052173;28;20045;-60
2023/10/29 00:51:53;;;;;;;12.35;8.52;;;;;;;;;;5053060;28;20063;-60
2023/10/29 00:54:19;;;;;;;14.43;8.27;;;;;;;;;;5051694;28;20041;-60
2023/10/29 00:56:45;;;;;;;9.85;7.80;;;;;;;;;;5052524;28;20124;-60
2023/10/29 00:59:12;;;;;;;15.05;8.73;;;;;;;;;;5052740;28;20531;-60
2023/10/29 01:01:38;;;;;;;11.98;8.43;;;;;;;;;;5050374;28;20133;-60
2023/10/29 01:04:05;;;;;;;10.93;8.15;;;;;;;;;;5052413;28;20575;-60
2023/10/29 01:06:31;;;;;;;14.05;8.98;;;;;;;;;;5052015;28;20037;-60
2023/10/29 01:08:58;;;;;;;10.65;7.70;;;;;;;;;;5052550;28;20056;-60
2023/10/29 01:11:25;;;;;;;11.57;8.25;;;;;;;;;;5051814;28;20101;-60
2023/10/29 01:13:51;;;;;;;11.48;8.00;;;;;;;;;;5052220;28;20389;-60
2023/10/29 01:16:17;;;;;;;11.80;7.97;;;;;;;;;;5049878;28;20382;-60
2023/10/29 01:18:43;;;;;;;11.57;7.85;;;;;;;;;;5033856;28;20373;-60
2023/10/29 01:21:09;;;;;;;10.13;6.72;;;;;;;;;;5050755;28;20162;-60
2023/10/29 01:23:36;;;;;;;9.80;6.55;;;;;;;;;;5051245;28;20503;-60
2023/10/29 01:26:02;;;;;;;10.93;7.35;;;;;;;;;;5051946;28;20041;-60
2023/10/29 01:28:28;;;;;;;10.15;7.65;;;;;;;;;;5049418;28;20045;-60
2023/10/29 01:30:55;;;;;;;13.38;8.68;;;;;;;;;;5050596;28;20052;-60
2023/10/29 01:33:21;;;;;;;17.13;9.23;;;;;;;;;;5045495;28;20037;-60
2023/10/29 01:35:47;;;;;;;15.32;9.73;;;;;;;;;;5050410;28;20044;-60
2023/10/29 01:38:13;;;;;;;16.50;10.85;;;;;;;;;;5050385;28;20055;-60
2023/10/29 01:40:39;;;;;;;14.50;11.00;;;;;;;;;;5050646;28;20041;-60
2023/10/29 01:43:05;;;;;;;16.77;10.25;;;;;;;;;;5042698;28;20072;-60
2023/10/29 01:45:32;;;;;;;14.70;10.00;;;;;;;;;;5051239;28;20053;-60
2023/10/29 01:47:58;;;;;;;12.43;9.65;;;;;;;;;;5051577;28;20119;-60
2023/10/29 01:50:24;;;;;;;16.65;10.38;;;;;;;;;;5049962;28;20124;-60
2023/10/29 01:52:53;;;;;;;16.08;10.50;;;;;;;;;;5047817;28;20038;-60
2023/10/29 01:55:20;;;;;;;12.68;9.93;;;;;;;;;;5043103;28;20076;-60
2023/10/29 01:57:46;;;;;;;15.98;10.85;;;;;;;;;;5049570;28;20047;-60
2023/10/29 02:00:12;;;;;;;13.88;9.38;;;;;;;;;;5048011;28;20052;-60
2023/10/29 02:02:39;;;;;;;13.80;9.30;;;;;;;;;;5047077;28;20124;-60
2023/10/29 02:05:05;;;;;;;13.13;9.73;;;;;;;;;;5047061;28;20048;-60
2023/10/29 02:07:32;;;;;;;17.33;10.43;;;;;;;;;;5050587;28;20144;-60
2023/10/29 02:09:58;;;;;;;13.48;8.38;;;;;;;;;;5039564;28;20452;-60
2023/10/29 02:12:24;;;;;;;13.35;8.48;;;;;;;;;;5046132;28;20230;-60
2023/10/29 02:14:50;;;;;;;11.80;7.78;;;;;;;;;;5049443;28;20045;-60
2023/10/29 02:17:16;;;;;;;13.02;8.32;;;;;;;;;;5049880;28;20115;-60
2023/10/29 02:19:42;;;;;;;11.32;6.43;;;;;;;;;;5048289;28;20049;-60
2023/10/29 02:22:09;;;;;;;10.68;6.00;;;;;;;;;;5050485;28;20037;-60
2023/10/29 02:24:35;;;;;;;10.25;6.20;;;;;;;;;;5050293;28;20182;-60
2023/10/29 02:27:01;;;;;;;10.63;5.45;;;;;;;;;;5049895;28;20491;-60
2023/10/29 02:29:27;;;;;;;7.40;5.43;;;;;;;;;;5047100;28;20048;-61
2023/10/29 02:31:53;;;;;;;8.60;5.07;;;;;;;;;;5044339;28;20485;-60
2023/10/29 02:34:19;;;;;;;8.80;4.50;;;;;;;;;;5047217;28;20045;-60
2023/10/29 02:36:46;;;;;;;9.95;3.97;;;;;;;;;;5051425;28;20044;-60
2023/10/29 02:39:13;;;;;;;9.05;4.20;;;;;;;;;;5049713;28;20045;-60
2023/10/29 02:41:39;;;;;;;7.07;3.63;;;;;;;;;;5050531;28;20499;-60
2023/10/29 02:44:05;;;;;;;7.30;3.83;;;;;;;;;;5050314;28;20130;-60
2023/10/29 02:46:31;;;;;;;8.02;3.10;;;;;;;;;;5045012;28;20421;-60
2023/10/29 02:48:57;;;;;;;6.68;3.00;;;;;;;;;;5045343;28;20073;-60
2023/10/29 02:51:24;;;;;;;6.63;2.60;;;;;;;;;;5039083;28;20375;-60
2023/10/29 02:53:50;;;;;;;5.97;2.30;;;;;;;;;;5048549;28;20098;-60
2023/10/29 02:56:16;;;;;;;6.18;2.42;;;;;;;;;;5031864;28;20040;-60
2023/10/29 02:58:42;;;;;;;5.43;2.20;;;;;;;;;;5045965;28;20050;-60
2023/10/29 03:01:09;;;;;;;4.90;2.20;;;;;;;;;;5046861;28;20040;-60
2023/10/29 03:03:36;;;;;;;6.90;2.15;;;;;;;;;;5045776;28;20120;-60
2023/10/29 03:06:06;;;;;;;4.90;1.77;;;;;;;;;;5049935;28;20041;-60
2023/10/29 03:08:32;;;;;;;7.70;1.92;;;;;;;;;;5049581;28;20052;-60
2023/10/29 03:10:59;;;;;;;4.68;1.70;;;;;;;;;;5032740;28;20119;-60
2023/10/29 03:13:25;;;;;;;4.57;1.58;;;;;;;;;;5049836;28;20127;-60
2023/10/29 03:15:51;;;;;;;4.47;1.92;;;;;;;;;;5048340;28;20049;-60
2023/10/29 03:18:17;;;;;;;4.18;1.73;;;;;;;;;;5046554;28;20116;-60
2023/10/29 03:20:44;;;;;;;3.55;1.50;;;;;;;;;;5050024;28;20041;-60
2023/10/29 03:23:10;;;;;;;4.63;1.30;;;;;;;;;;5050273;28;20501;-60
2023/10/29 03:25:36;;;;;;;3.42;1.27;;;;;;;;;;5050456;28;20037;-60
2023/10/29 03:28:02;;;;;;;4.50;1.67;;;;;;;;;;5049508;28;20086;-61
2023/10/29 03:30:28;;;;;;;6.95;1.75;;;;;;;;;;5048658;28;20045;-60
2023/10/29 03:32:54;;;;;;;3.85;1.40;;;;;;;;;;5050581;28;20091;-60
2023/10/29 03:35:21;;;;;;;4.43;1.60;;;;;;;;;;5021294;28;20046;-60
2023/10/29 03:37:47;;;;;;;4.90;1.50;;;;;;;;;;5049898;28;20037;-60
2023/10/29 03:40:13;;;;;;;6.72;1.50;;;;;;;;;;5050362;28;20108;-60
2023/10/29 03:42:39;;;;;;;5.55;1.48;;;;;;;;;;5049404;28;20033;-60
2023/10/29 03:45:06;;;;;;;3.08;1.58;;;;;;;;;;5049091;28;20040;-60
2023/10/29 03:47:32;;;;;;;4.40;1.55;;;;;;;;;;5049357;28;20362;-60
2023/10/29 03:49:58;;;;;;;5.95;2.00;;;;;;;;;;5047285;28;20062;-60
2023/10/29 03:52:24;;;;;;;3.47;1.58;;;;;;;;;;5047371;28;20045;-60
2023/10/29 03:54:51;;;;;;;2.88;1.20;;;;;;;;;;5050431;28;20071;-60
2023/10/29 03:57:17;;;;;;;3.00;0.93;;;;;;;;;;5049397;28;20040;-60
2023/10/29 03:59:43;;;;;;;4.20;1.17;;;;;;;;;;5049362;28;20477;-60
2023/10/29 04:02:10;;;;;;;4.07;1.05;;;;;;;;;;5044630;28;20100;-60
2023/10/29 04:04:36;;;;;;;4.28;1.20;;;;;;;;;;5047511;28;20041;-60
2023/10/29 04:07:03;;;;;;;3.45;1.15;;;;;;;;;;5046873;28;20068;-60
2023/10/29 04:09:29;;;;;;;8.13;1.52;;;;;;;;;;5048123;28;20434;-60
2023/10/29 04:11:55;;;;;;;4.43;1.20;;;;;;;;;;5049566;28;20032;-60
2023/10/29 04:14:22;;;;;;;3.00;1.08;;;;;;;;;;5045659;28;20049;-60
2023/10/29 04:16:48;;;;;;;3.08;1.13;;;;;;;;;;5049007;28;20114;-60
2023/10/29 04:19:14;;;;;;;4.57;1.23;;;;;;;;;;5051125;28;20052;-60
2023/10/29 04:21:40;;;;;;;4.68;1.17;;;;;;;;;;5051729;28;20061;-60
2023/10/29 04:24:07;;;;;;;24.17;1.92;;;;;;;;;;5052825;28;20041;-60
2023/10/29 04:26:33;;;;;;;6.03;1.25;;;;;;;;;;5047151;28;20053;-60
2023/10/29 04:28:59;;;;;;;3.50;1.00;;;;;;;;;;5052048;28;20124;-60
2023/10/29 04:31:26;;;;;;;2.92;1.08;;;;;;;;;;5052905;28;20409;-60
2023/10/29 04:33:52;;;;;;;2.90;0.93;;;;;;;;;;5053443;28;20464;-60
2023/10/29 04:36:24;;;;;;;3.35;1.25;;;;;;;;;;5050000;28;20190;-60
2023/10/29 04:38:51;;;;;;;3.17;0.93;;;;;;;;;;5034471;28;20468;-60
2023/10/29 04:41:18;;;;;;;2.15;0.80;;;;;;;;;;5053480;28;20089;-60
2023/10/29 04:43:44;;;;;;;2.88;0.80;;;;;;;;;;5045230;28;20049;-61
2023/10/29 04:46:11;;;;;;;3.90;0.80;;;;;;;;;;5052462;28;20136;-61
2023/10/29 04:48:37;;;;;;;2.75;0.80;;;;;;;;;;5046326;28;20112;-61
2023/10/29 04:51:07;;;;;;;1.98;0.60;;;;;;;;;;5040255;28;20037;-60
2023/10/29 04:53:37;;;;;;;2.80;0.82;;;;;;;;;;5043280;28;20084;-60
2023/10/29 04:56:03;;;;;;;3.88;0.60;;;;;;;;;;5053118;28;20439;-60
2023/10/29 04:58:33;;;;;;;2.17;0.80;;;;;;;;;;5051972;28;20465;-60
2023/10/29 05:00:59;;;;;;;3.35;0.60;;;;;;;;;;5052671;28;20041;-60
2023/10/29 05:03:27;;;;;;;1.67;0.50;;;;;;;;;;5051375;28;20128;-60
2023/10/29 05:05:54;;;;;;;3.60;0.82;;;;;;;;;;5049083;28;20033;-60
2023/10/29 05:08:20;;;;;;;2.25;0.52;;;;;;;;;;5052343;28;20049;-60
2023/10/29 05:10:47;;;;;;;1.05;0.50;;;;;;;;;;5052761;28;20107;-60
2023/10/29 05:13:13;;;;;;;3.70;0.73;;;;;;;;;;5051652;28;20508;-60
2023/10/29 05:15:40;;;;;;;4.47;0.80;;;;;;;;;;5045902;28;20037;-60
2023/10/29 05:18:06;;;;;;;3.08;0.57;;;;;;;;;;5050731;28;20090;-60
2023/10/29 05:20:32;;;;;;;4.80;0.90;;;;;;;;;;5051241;28;20106;-60
2023/10/29 05:22:58;;;;;;;1.70;0.55;;;;;;;;;;5052689;28;20048;-60
2023/10/29 05:25:25;;;;;;;3.80;0.98;;;;;;;;;;5051293;28;20048;-60
2023/10/29 05:27:51;;;;;;;4.70;0.98;;;;;;;;;;5051672;28;20493;-60
2023/10/29 05:30:18;;;;;;;3.85;0.60;;;;;;;;;;5030453;28;20041;-60
2023/10/29 05:32:44;;;;;;;3.67;1.00;;;;;;;;;;5030904;28;20405;-60
2023/10/29 05:35:10;;;;;;;3.65;0.88;;;;;;;;;;5030484;28;20107;-60
2023/10/29 05:37:36;;;;;;;5.18;0.95;;;;;;;;;;5026994;28;20073;-60
2023/10/29 05:40:04;;;;;;;6.50;1.02;;;;;;;;;;5032436;28;20051;-60
2023/10/29 05:42:31;;;;;;;3.15;0.90;;;;;;;;;;5031309;28;20478;-60
2023/10/29 05:44:57;;;;;;;6.25;1.08;;;;;;;;;;5032411;28;20103;-60
2023/10/29 05:47:24;;;;;;;4.70;1.30;;;;;;;;;;5013391;28;20451;-60
2023/10/29 05:49:50;;;;;;;5.72;1.10;;;;;;;;;;5021796;28;20037;-60
2023/10/29 05:52:16;;;;;;;5.78;1.15;;;;;;;;;;5030922;28;20041;-60
2023/10/29 05:54:42;;;;;;;1.77;0.75;;;;;;;;;;5031819;28;20405;-60
2023/10/29 05:57:09;;;;;;;1.95;0.77;;;;;;;;;;5030724;28;20080;-60
2023/10/29 05:59:35;;;;;;;5.35;1.10;;;;;;;;;;5031870;28;20384;-60
2023/10/29 06:02:02;;;;;;;3.53;1.20;;;;;;;;;;5030743;28;20053;-60
2023/10/29 06:04:28;;;;;;;3.35;0.77;;;;;;;;;;5028814;28;20183;-60
2023/10/29 06:06:55;;;;;;;3.28;0.77;;;;;;;;;;5028545;28;20494;-60
2023/10/29 06:09:21;;;;;;;4.28;0.90;;;;;;;;;;5027230;28;20041;-60
2023/10/29 06:11:47;;;;;;;3.63;1.27;;;;;;;;;;5031574;28;20099;-60
2023/10/29 06:14:13;;;;;;;2.20;0.80;;;;;;;;;;5031737;28;20411;-60
2023/10/29 06:16:39;;;;;;;3.50;0.98;;;;;;;;;;5030712;28;20091;-60
2023/10/29 06:19:06;;;;;;;5.35;0.93;;;;;;;;;;5031281;28;20054;-60
2023/10/29 06:21:32;;;;;;;3.15;0.70;;;;;;;;;;5027205;28;20493;-60
2023/10/29 06:23:58;;;;;;;5.25;1.35;;;;;;;;;;5029774;28;20048;-60
2023/10/29 06:26:24;;;;;;;3.90;0.80;;;;;;;;;;5026745;28;20148;-60
2023/10/29 06:28:50;;;;;;;3.20;0.52;;;;;;;;;;5021412;28;20057;-60
2023/10/29 06:31:17;;;;;;;4.10;0.70;;;;;;;;;;5050474;28;20051;-60
2023/10/29 06:33:43;;;;;;;4.90;0.80;;;;;;;;;;5048326;28;20049;-60
2023/10/29 06:36:09;;;;;;;1.55;0.50;;;;;;;;;;5050342;28;20102;-60
2023/10/29 06:38:35;;;;;;;2.33;0.63;;;;;;;;;;5048865;28;20533;-60
2023/10/29 06:41:02;;;;;;;2.55;0.90;;;;;;;;;;5045827;28;20041;-60
2023/10/29 06:43:28;;;;;;;4.15;0.73;;;;;;;;;;5048441;28;20049;-60
2023/10/29 06:45:56;;;;;;;3.53;0.98;;;;;;;;;;5050015;28;20032;-61
2023/10/29 06:48:22;;;;;;;5.90;0.88;;;;;;;;;;5050585;28;20057;-60
2023/10/29 06:50:49;;;;;;;3.08;1.00;;;;;;;;;;5051026;28;20107;-60
2023/10/29 06:53:15;;;;;;;5.10;0.90;;;;;;;;;;5045400;28;20040;-60
2023/10/29 06:55:42;;;;;;;6.32;0.85;;;;;;;;;;5046714;28;20041;-60
2023/10/29 06:58:08;;;;;;;3.75;0.85;;;;;;;;;;5050287;28;20447;-62
2023/10/29 07:00:34;;;;;;;6.50;1.00;;;;;;;;;;5050532;28;20052;-60
2023/10/29 07:03:01;;;;;;;5.45;1.20;;;;;;;;;;5050484;28;20126;-60
2023/10/29 07:05:28;;;;;;;4.38;0.95;;;;;;;;;;5049846;28;20044;-60
2023/10/29 07:07:54;;;;;;;5.05;1.08;;;;;;;;;;5049146;28;20392;-60
2023/10/29 07:10:20;;;;;;;5.57;0.95;;;;;;;;;;5037509;28;20045;-61
2023/10/29 07:12:46;;;;;;;6.78;1.15;;;;;;;;;;5049987;28;20056;-60
2023/10/29 07:15:12;;;;;;;5.47;1.00;;;;;;;;;;5048553;28;20072;-62
2023/10/29 07:17:39;;;;;;;7.32;1.10;;;;;;;;;;5049838;28;20448;-60
2023/10/29 07:20:05;;;;;;;6.50;1.27;;;;;;;;;;5049356;28;20037;-60
2023/10/29 07:22:31;;;;;;;6.43;1.20;;;;;;;;;;5049930;28;20116;-60
2023/10/29 07:24:58;;;;;;;7.43;1.20;;;;;;;;;;5049382;28;20041;-60
2023/10/29 07:27:24;;;;;;;8.07;1.17;;;;;;;;;;5048666;28;20174;-60
2023/10/29 07:29:50;;;;;;;7.15;1.13;;;;;;;;;;5046046;28;20461;-60
2023/10/29 07:32:16;;;;;;;6.18;1.27;;;;;;;;;;5046661;28;20087;-60
2023/10/29 07:34:42;;;;;;;6.82;1.25;;;;;;;;;;5045327;28;20041;-60
2023/10/29 07:37:09;;;;;;;5.10;1.65;;;;;;;;;;5047362;28;20500;-60
2023/10/29 07:39:36;;;;;;;6.75;1.27;;;;;;;;;;5048118;28;20041;-60
2023/10/29 07:42:02;;;;;;;6.05;1.90;;;;;;;;;;5045756;28;20482;-60
2023/10/29 07:44:28;;;;;;;6.68;1.20;;;;;;;;;;5046594;28;20052;-60
2023/10/29 07:46:55;;;;;;;6.35;1.15;;;;;;;;;;5044839;28;20033;-60
2023/10/29 07:49:21;;;;;;;11.00;1.50;;;;;;;;;;5050557;28;20040;-61
2023/10/29 07:51:49;;;;;;;4.85;1.27;;;;;;;;;;5054316;28;20040;-61
2023/10/29 07:54:18;;;;;;;6.35;1.58;;;;;;;;;;5052798;28;20053;-61
2023/10/29 07:56:45;;;;;;;10.23;1.30;;;;;;;;;;5053274;28;20071;-61
2023/10/29 07:59:11;;;;;;;8.45;1.40;;;;;;;;;;5053806;28;20500;-61
2023/10/29 08:01:37;;;;;;;8.65;2.47;;;;;;;;;;5052837;28;20226;-61
2023/10/29 08:04:04;;;;;;;6.22;1.48;;;;;;;;;;5046358;28;20051;-61
2023/10/29 08:06:30;;;;;;;7.75;1.50;;;;;;;;;;5047359;28;20044;-61
2023/10/29 08:08:56;;;;;;;6.65;1.17;;;;;;;;;;5047782;28;20408;-61
2023/10/29 08:11:22;;;;;;;9.48;1.98;;;;;;;;;;5048929;28;20091;-61
2023/10/29 08:13:50;;;;;;;9.52;1.85;;;;;;;;;;5048417;28;20041;-61
2023/10/29 08:16:18;;;;;;;10.10;2.22;;;;;;;;;;5016339;28;20053;-61
2023/10/29 08:18:45;;;;;;;8.43;1.83;;;;;;;;;;5049248;28;20041;-61
2023/10/29 08:21:15;;;;;;;14.52;1.83;;;;;;;;;;5052307;28;20124;-61
2023/10/29 08:23:41;;;;;;;15.45;1.83;;;;;;;;;;5050245;28;20084;-61
2023/10/29 08:26:07;;;;;;;16.52;3.45;;;;;;;;;;5053510;28;20040;-61
2023/10/29 08:28:35;;;;;;;9.50;1.63;;;;;;;;;;5049725;28;20051;-61
2023/10/29 08:31:02;;;;;;;10.02;1.50;;;;;;;;;;5031431;28;20128;-61
2023/10/29 08:33:28;;;;;;;13.93;1.98;;;;;;;;;;5050587;28;20060;-62
2023/10/29 08:35:54;;;;;;;16.10;2.15;;;;;;;;;;5053265;28;20041;-61
2023/10/29 08:38:21;;;;;;;7.28;1.17;;;;;;;;;;5051797;28;20528;-62
2023/10/29 08:40:47;;;;;;;5.13;1.55;;;;;;;;;;5053570;28;20076;-62
2023/10/29 08:43:13;;;;;;;11.52;2.05;;;;;;;;;;5052566;28;20041;-62
2023/10/29 08:45:41;;;;;;;7.38;1.27;;;;;;;;;;5052634;28;20064;-62
2023/10/29 08:48:08;;;;;;;12.18;1.83;;;;;;;;;;5051745;28;20045;-62
2023/10/29 08:50:34;;;;;;;8.65;1.23;;;;;;;;;;5047269;28;20037;-62
2023/10/29 08:53:00;;;;;;;7.40;1.90;;;;;;;;;;5050283;28;20040;-62
2023/10/29 08:55:26;;;;;;;7.22;1.40;;;;;;;;;;5045651;28;20449;-62
2023/10/29 08:57:53;;;;;;;8.18;1.65;;;;;;;;;;5049617;28;20413;-62
2023/10/29 09:00:19;;;;;;;11.02;1.92;;;;;;;;;;5031981;28;20045;-61
2023/10/29 09:02:46;;;;;;;11.00;1.98;;;;;;;;;;5047033;28;20045;-68
2023/10/29 09:05:12;;;;;;;8.48;1.55;;;;;;;;;;5032189;28;20122;-62
2023/10/29 09:07:38;;;;;;;8.85;1.77;;;;;;;;;;5048396;28;20048;-62
2023/10/29 09:10:05;;;;;;;7.45;1.33;;;;;;;;;;5051857;28;20041;-62
2023/10/29 09:12:31;;;;;;;10.25;1.90;;;;;;;;;;5051500;28;20055;-62
2023/10/29 09:14:57;;;;;;;11.52;1.40;;;;;;;;;;5052039;28;20044;-61
2023/10/29 09:17:24;;;;;;;7.32;1.45;;;;;;;;;;5051874;28;20049;-62
2023/10/29 09:19:50;;;;;;;8.88;1.38;;;;;;;;;;5048619;28;20041;-61
2023/10/29 09:22:16;;;;;;;4.45;0.93;;;;;;;;;;5051601;28;20135;-61
2023/10/29 09:24:43;;;;;;;7.70;1.10;;;;;;;;;;5050449;28;20045;-61
2023/10/29 09:27:09;;;;;;;11.32;1.77;;;;;;;;;;5044175;28;20072;-61
2023/10/29 09:29:36;;;;;;;4.90;1.20;;;;;;;;;;5047288;28;20132;-61
2023/10/29 09:32:07;;;;;;;13.38;1.70;;;;;;;;;;5051647;28;20342;-61
2023/10/29 09:34:33;;;;;;;11.43;1.52;;;;;;;;;;5050094;28;20048;-62
2023/10/29 09:37:00;;;;;;;10.20;1.92;;;;;;;;;;5038486;28;20029;-62
2023/10/29 09:39:27;;;;;;;7.47;1.25;;;;;;;;;;5052204;28;20081;-62
2023/10/29 09:41:54;;;;;;;7.20;1.20;;;;;;;;;;5051106;28;20041;-61
2023/10/29 09:44:21;;;;;;;9.35;1.58;;;;;;;;;;5048191;28;20128;-61
2023/10/29 09:46:53;;;;;;;12.75;1.90;;;;;;;;;;5048967;28;20389;-62
2023/10/29 09:49:20;;;;;;;11.18;2.10;;;;;;;;;;5019230;28;20429;-62
2023/10/29 09:51:47;;;;;;;8.77;1.52;;;;;;;;;;5051387;28;20112;-61
2023/10/29 09:54:14;;;;;;;6.45;1.83;;;;;;;;;;5050253;28;20049;-62
2023/10/29 09:56:41;;;;;;;6.80;1.00;;;;;;;;;;5049043;28;20045;-62
2023/10/29 09:59:07;;;;;;;12.27;1.58;;;;;;;;;;5050809;28;20056;-62
2023/10/29 10:01:34;;;;;;;6.10;1.25;;;;;;;;;;5040699;28;20040;-62
2023/10/29 10:04:00;;;;;;;9.10;1.40;;;;;;;;;;5031133;28;20155;-62
2023/10/29 10:06:27;;;;;;;5.28;1.08;;;;;;;;;;5048837;28;20055;-62
2023/10/29 10:08:59;;;;;;;6.78;1.73;;;;;;;;;;5017123;28;20488;-63
2023/10/29 10:11:25;;;;;;;8.63;1.40;;;;;;;;;;5048718;28;20041;-63
2023/10/29 10:13:52;;;;;;;7.25;1.50;;;;;;;;;;5049830;28;20053;-62
2023/10/29 10:16:19;;;;;;;6.45;1.30;;;;;;;;;;5049896;28;20073;-63
2023/10/29 10:18:50;;;;;;;13.30;1.92;;;;;;;;;;5050358;28;20057;-62
2023/10/29 10:21:20;;;;;;;6.30;1.35;;;;;;;;;;5029293;28;20132;-61
2023/10/29 10:23:49;;;;;;;5.38;1.25;;;;;;;;;;5031007;28;20053;-62
2023/10/29 10:26:18;;;;;;;9.77;1.63;;;;;;;;;;5042594;28;20124;-61
2023/10/29 10:28:58;;;;;;;6.53;1.48;;;;;;;;;;5049749;28;20134;-62
2023/10/29 10:31:27;;;;;;;8.80;1.67;;;;;;;;;;5048876;28;20444;-62
2023/10/29 10:34:13;;;;;;;7.53;1.33;;;;;;;;;;5040141;28;20078;-62
2023/10/29 10:36:40;;;;;;;5.80;1.27;;;;;;;;;;5049523;28;20047;-62
2023/10/29 10:39:07;;;;;;;7.00;1.70;;;;;;;;;;5049702;28;20037;-61
2023/10/29 10:41:41;;;;;;;10.98;2.03;;;;;;;;;;5049084;28;20068;-62
2023/10/29 10:44:14;;;;;;;7.80;1.73;;;;;;;;;;5049288;28;20045;-62
2023/10/29 10:46:46;;;;;;;11.15;1.60;;;;;;;;;;5050946;28;20049;-62
2023/10/29 10:49:14;;;;;;;8.30;1.45;;;;;;;;;;5049085;28;20066;-62
2023/10/29 10:51:41;;;;;;;8.35;1.55;;;;;;;;;;5050231;28;20505;-62
2023/10/29 10:54:07;;;;;;;10.20;1.50;;;;;;;;;;5032039;28;20400;-63
2023/10/29 10:56:38;;;;;;;11.00;1.95;;;;;;;;;;5042920;28;20051;-62
2023/10/29 10:59:05;;;;;;;9.48;2.13;;;;;;;;;;5045353;28;20068;-62
2023/10/29 11:01:32;;;;;;;10.13;2.53;;;;;;;;;;5049337;28;20115;-62
2023/10/29 11:04:01;;;;;;;7.13;1.40;;;;;;;;;;5049983;28;20060;-62
2023/10/29 11:06:28;;;;;;;8.95;1.50;;;;;;;;;;5049852;28;20116;-62
2023/10/29 11:08:55;;;;;;;7.82;1.80;;;;;;;;;;5025670;28;20053;-62
2023/10/29 11:11:23;;;;;;;7.05;1.33;;;;;;;;;;5047572;28;20120;-62
2023/10/29 11:13:50;;;;;;;8.10;1.38;;;;;;;;;;5048961;28;20180;-62
2023/10/29 11:16:24;;;;;;;10.35;2.70;;;;;;;;;;5048658;28;20485;-62
2023/10/29 11:18:50;;;;;;;7.53;1.33;;;;;;;;;;5047258;28;20513;-62
2023/10/29 11:21:33;;;;;;;6.13;1.30;;;;;;;;;;5043727;28;20040;-62
2023/10/29 11:24:20;;;;;;;9.18;1.55;;;;;;;;;;5044866;28;20147;-62
2023/10/29 11:26:46;;;;;;;7.03;1.33;;;;;;;;;;5051397;28;20450;-62
2023/10/29 11:29:36;;;;;;;5.57;1.58;;;;;;;;;;5054499;28;20492;-62
2023/10/29 11:32:20;;;;;;;6.57;1.30;;;;;;;;;;5053234;28;20122;-62
2023/10/29 11:34:46;;;;;;;8.43;1.20;;;;;;;;;;5053768;28;20045;-62
2023/10/29 11:37:39;;;;;;;6.03;1.13;;;;;;;;;;5053900;28;20128;-62
2023/10/29 11:40:23;;;;;;;9.35;1.80;;;;;;;;;;5048490;28;20049;-62
2023/10/29 11:42:53;;;;;;;9.35;1.50;;;;;;;;;;5041192;28;20124;-62
2023/10/29 11:45:28;;;;;;;8.65;2.17;;;;;;;;;;5054430;28;20037;-62
2023/10/29 11:48:09;;;;;;;12.60;1.77;;;;;;;;;;5039225;28;20068;-62
2023/10/29 11:50:42;;;;;;;9.90;1.60;;;;;;;;;;5051701;28;20049;-62
2023/10/29 11:53:29;;;;;;;9.93;2.03;;;;;;;;;;5054143;28;20037;-62
2023/10/29 11:55:59;;;;;;;8.60;1.75;;;;;;;;;;5054256;28;20044;-62
2023/10/29 11:58:29;;;;;;;10.43;2.22;;;;;;;;;;5054011;28;20032;-62
2023/10/29 12:00:55;;;;;;;13.45;2.15;;;;;;;;;;5053176;28;20452;-62
2023/10/29 12:03:22;;;;;;;12.25;3.00;;;;;;;;;;5052036;28;20130;-61
2023/10/29 12:05:52;;;;;;;9.88;1.98;;;;;;;;;;5054765;28;20048;-62
2023/10/29 12:08:19;;;;;;;10.43;2.75;;;;;;;;;;5049669;28;20075;-62
2023/10/29 12:10:46;;;;;;;9.88;1.90;;;;;;;;;;5052756;28;20079;-62
2023/10/29 12:13:12;;;;;;;12.35;1.67;;;;;;;;;;5052122;28;20057;-68
2023/10/29 12:15:39;;;;;;;14.80;2.25;;;;;;;;;;5029617;28;20053;-61
2023/10/29 12:18:05;;;;;;;8.80;1.48;;;;;;;;;;5046317;28;20488;-61
2023/10/29 12:20:31;;;;;;;10.05;2.28;;;;;;;;;;5052074;28;20044;-61
2023/10/29 12:23:00;;;;;;;11.38;1.75;;;;;;;;;;5031828;28;20045;-61
2023/10/29 12:25:27;;;;;;;11.90;1.83;;;;;;;;;;5050367;28;20095;-60
2023/10/29 12:27:54;;;;;;;14.15;2.25;;;;;;;;;;5051043;28;20068;-61
2023/10/29 12:30:37;;;;;;;11.23;1.95;;;;;;;;;;5052788;28;20118;-60
2023/10/29 12:33:22;;;;;;;15.75;2.15;;;;;;;;;;5053627;28;20408;-60
2023/10/29 12:35:49;;;;;;;10.38;1.73;;;;;;;;;;5052194;28;20472;-60
2023/10/29 12:38:16;;;;;;;11.30;2.30;;;;;;;;;;5052471;28;20098;-60
2023/10/29 12:41:01;;;;;;;15.90;4.18;;;;;;;;;;5052445;28;20048;-60
2023/10/29 12:43:37;;;;;;;11.77;2.20;;;;;;;;;;5052606;28;20453;-60
2023/10/29 12:46:08;;;;;;;9.65;1.58;;;;;;;;;;5051108;28;20520;-60
2023/10/29 12:48:34;;;;;;;10.43;1.65;;;;;;;;;;5053202;28;20116;-60
2023/10/29 12:51:02;;;;;;;13.48;1.80;;;;;;;;;;5052272;28;20044;-60
2023/10/29 12:53:32;;;;;;;13.00;1.83;;;;;;;;;;5053046;28;20049;-60
2023/10/29 12:55:59;;;;;;;12.95;2.08;;;;;;;;;;5051727;28;20394;-60
2023/10/29 12:58:26;;;;;;;14.43;2.60;;;;;;;;;;5044639;28;20373;-60
2023/10/29 13:00:53;;;;;;;11.32;1.83;;;;;;;;;;5045693;28;20053;-60
2023/10/29 13:03:19;;;;;;;15.50;2.30;;;;;;;;;;5053190;28;20063;-60
2023/10/29 13:05:46;;;;;;;9.55;1.48;;;;;;;;;;5052347;28;20469;-60
2023/10/29 13:08:14;;;;;;;11.98;1.80;;;;;;;;;;5052658;28;20044;-60
2023/10/29 13:10:43;;;;;;;13.15;2.10;;;;;;;;;;5050438;28;20051;-60
2023/10/29 13:13:09;;;;;;;13.75;2.15;;;;;;;;;;5051843;28;20063;-60
2023/10/29 13:15:35;;;;;;;10.43;1.98;;;;;;;;;;5051694;28;20041;-60
2023/10/29 13:18:02;;;;;;;17.02;2.65;;;;;;;;;;5052064;28;20072;-60
2023/10/29 13:20:30;;;;;;;10.40;2.00;;;;;;;;;;5050755;28;20043;-60
2023/10/29 13:22:57;;;;;;;16.45;2.63;;;;;;;;;;5050306;28;20041;-60
2023/10/29 13:25:24;;;;;;;12.93;2.85;;;;;;;;;;5051710;28;20440;-60
2023/10/29 13:27:50;;;;;;;10.95;2.22;;;;;;;;;;5052617;28;20087;-60
2023/10/29 13:30:17;;;;;;;13.55;2.08;;;;;;;;;;5050185;28;20401;-60
2023/10/29 13:32:43;;;;;;;10.02;2.30;;;;;;;;;;5047593;28;20053;-60
2023/10/29 13:35:09;;;;;;;8.77;2.05;;;;;;;;;;5041302;28;20493;-60
2023/10/29 13:37:37;;;;;;;14.68;3.35;;;;;;;;;;5051414;28;20056;-60
2023/10/29 13:40:06;;;;;;;11.27;2.17;;;;;;;;;;5051626;28;20040;-60
2023/10/29 13:42:32;;;;;;;15.50;2.85;;;;;;;;;;5051047;28;20057;-60
2023/10/29 13:44:58;;;;;;;14.95;2.58;;;;;;;;;;5033455;28;20072;-60
2023/10/29 13:47:24;;;;;;;14.45;2.25;;;;;;;;;;5050455;28;20581;-60
2023/10/29 13:49:51;;;;;;;11.48;2.55;;;;;;;;;;5051227;28;20102;-60
2023/10/29 13:52:17;;;;;;;15.40;2.20;;;;;;;;;;5049501;28;20049;-60
2023/10/29 13:54:43;;;;;;;11.27;2.35;;;;;;;;;;5050684;28;20049;-61
2023/10/29 13:57:09;;;;;;;13.73;2.45;;;;;;;;;;5051409;28;20055;-61
2023/10/29 13:59:35;;;;;;;14.73;2.65;;;;;;;;;;5050158;28;20037;-61
2023/10/29 14:02:02;;;;;;;14.07;2.03;;;;;;;;;;5050757;28;20044;-62
2023/10/29 14:04:28;;;;;;;14.55;2.28;;;;;;;;;;5051804;28;20083;-62
2023/10/29 14:06:55;;;;;;;14.25;2.10;;;;;;;;;;5043280;28;20041;-61
2023/10/29 14:09:24;;;;;;;16.52;4.28;;;;;;;;;;5048379;28;20439;-61
2023/10/29 14:11:51;;;;;;;11.32;2.72;;;;;;;;;;5049155;28;20053;-61
2023/10/29 14:14:18;;;;;;;10.45;1.92;;;;;;;;;;5061205;28;20049;-72
2023/10/29 14:16:45;;;;;;;15.27;3.47;;;;;;;;;;5050717;28;20053;-62
2023/10/29 14:19:11;;;;;;;17.67;2.58;;;;;;;;;;5051483;28;20063;-61
2023/10/29 14:21:37;;;;;;;14.65;2.75;;;;;;;;;;5048599;28;20124;-61
2023/10/29 14:24:06;;;;;;;13.45;2.42;;;;;;;;;;5051323;28;20055;-61
2023/10/29 14:26:33;;;;;;;13.93;2.40;;;;;;;;;;5051322;28;20453;-61
2023/10/29 14:28:59;;;;;;;10.95;2.05;;;;;;;;;;5047218;28;20408;-61
2023/10/29 14:31:25;;;;;;;10.52;2.53;;;;;;;;;;5048208;28;20123;-61
2023/10/29 14:33:51;;;;;;;11.25;1.98;;;;;;;;;;5050711;28;20045;-61
2023/10/29 14:36:19;;;;;;;11.95;1.92;;;;;;;;;;5050457;28;20052;-62